CCM55FH LFML-LFKJ
Flight info
| Callsign | CCM55FH |
|---|---|
| Flight time | N/A |
| Altitude | 23000 |
| Route | TINOT Z154 RUBAS |
| Aircraft | A320/M-SDE3FGHIRWY/LB1 |
Departure
| Time | N/A |
|---|---|
| Airport | Marseille Provence Airport (LFML) |
Arrival
| Time | 2026-04-30 18:37 |
|---|---|
| Airport | Ajaccio Napoléon Bonaparte airport (LFKJ) |
| Time | Latitude | Longitude | Altitude | Speed | Heading |
|---|---|---|---|---|---|
| 2026-04-30 18:16 | 42.47877 | 6.84789 | 23134 ft | 433 kts | 118° |
| 2026-04-30 18:17 | 42.46408 | 6.88365 | 23149 ft | 436 kts | 118° |
| 2026-04-30 18:17 | 42.44936 | 6.91940 | 23151 ft | 433 kts | 118° |
| 2026-04-30 18:17 | 42.41998 | 6.99054 | 23151 ft | 437 kts | 118° |
| 2026-04-30 18:18 | 42.40508 | 7.02648 | 23153 ft | 437 kts | 119° |
| 2026-04-30 18:18 | 42.39002 | 7.06278 | 23149 ft | 437 kts | 119° |
| 2026-04-30 18:18 | 42.37517 | 7.09848 | 23152 ft | 435 kts | 119° |
| 2026-04-30 18:18 | 42.36047 | 7.13375 | 23150 ft | 436 kts | 119° |
| 2026-04-30 18:19 | 42.34554 | 7.16956 | 23151 ft | 438 kts | 119° |
| 2026-04-30 18:19 | 42.33060 | 7.20533 | 23148 ft | 437 kts | 119° |
| 2026-04-30 18:19 | 42.31566 | 7.24110 | 23148 ft | 435 kts | 119° |
| 2026-04-30 18:19 | 42.30075 | 7.27673 | 23149 ft | 436 kts | 119° |
| 2026-04-30 18:20 | 42.28579 | 7.31245 | 23141 ft | 437 kts | 119° |
| 2026-04-30 18:20 | 42.27082 | 7.34818 | 23141 ft | 438 kts | 119° |
| 2026-04-30 18:20 | 42.25582 | 7.38393 | 23148 ft | 438 kts | 119° |
| 2026-04-30 18:20 | 42.24089 | 7.41957 | 22987 ft | 430 kts | 119° |
| 2026-04-30 18:21 | 42.22624 | 7.45456 | 22712 ft | 426 kts | 119° |
| 2026-04-30 18:21 | 42.21175 | 7.48910 | 22278 ft | 421 kts | 120° |
| 2026-04-30 18:21 | 42.19735 | 7.52327 | 21740 ft | 417 kts | 120° |
| 2026-04-30 18:21 | 42.18305 | 7.55712 | 21229 ft | 414 kts | 120° |
| 2026-04-30 18:22 | 42.16886 | 7.59068 | 20727 ft | 410 kts | 120° |
| 2026-04-30 18:22 | 42.14070 | 7.65716 | 19662 ft | 406 kts | 120° |
| 2026-04-30 18:22 | 42.12688 | 7.68970 | 19139 ft | 404 kts | 120° |
| 2026-04-30 18:23 | 42.11276 | 7.72292 | 18591 ft | 403 kts | 120° |
| 2026-04-30 18:23 | 42.09885 | 7.75564 | 17977 ft | 402 kts | 120° |
| 2026-04-30 18:23 | 42.08518 | 7.78780 | 17432 ft | 399 kts | 120° |
| 2026-04-30 18:23 | 42.07146 | 7.82012 | 16865 ft | 397 kts | 120° |
| 2026-04-30 18:24 | 42.04410 | 7.88425 | 15779 ft | 393 kts | 120° |
| 2026-04-30 18:24 | 42.03053 | 7.91597 | 15236 ft | 391 kts | 120° |
| 2026-04-30 18:24 | 42.01697 | 7.94763 | 14682 ft | 389 kts | 120° |
| 2026-04-30 18:25 | 42.00347 | 7.97909 | 14143 ft | 388 kts | 120° |
| 2026-04-30 18:25 | 41.97973 | 8.04341 | 13002 ft | 380 kts | 105° |
| 2026-04-30 18:25 | 41.97428 | 8.07791 | 12463 ft | 375 kts | 98° |
| 2026-04-30 18:26 | 41.96493 | 8.14611 | 11364 ft | 368 kts | 99° |
| 2026-04-30 18:26 | 41.96022 | 8.17970 | 10812 ft | 364 kts | 99° |
| 2026-04-30 18:26 | 41.95554 | 8.21271 | 10520 ft | 352 kts | 99° |
| 2026-04-30 18:27 | 41.94676 | 8.27459 | 10272 ft | 323 kts | 99° |
| 2026-04-30 18:27 | 41.94265 | 8.30368 | 10153 ft | 310 kts | 98° |
| 2026-04-30 18:28 | 41.93484 | 8.35901 | 9539 ft | 300 kts | 98° |
| 2026-04-30 18:28 | 41.93092 | 8.38674 | 9130 ft | 298 kts | 99° |
| 2026-04-30 18:28 | 41.92333 | 8.44057 | 8375 ft | 293 kts | 99° |
| 2026-04-30 18:29 | 41.91952 | 8.46733 | 7961 ft | 291 kts | 99° |
| 2026-04-30 18:29 | 41.90855 | 8.54516 | 6218 ft | 275 kts | 99° |
| 2026-04-30 18:30 | 41.90302 | 8.58631 | 5184 ft | 265 kts | 99° |
| 2026-04-30 18:30 | 41.89813 | 8.63793 | 4785 ft | 217 kts | 96° |
| 2026-04-30 18:31 | 41.89693 | 8.65789 | 4350 ft | 213 kts | 93° |
| 2026-04-30 18:31 | 41.89559 | 8.69588 | 4005 ft | 193 kts | 92° |
| 2026-04-30 18:32 | 41.90172 | 8.72893 | 4019 ft | 187 kts | 47° |
| 2026-04-30 18:32 | 41.91116 | 8.74103 | 4015 ft | 188 kts | 43° |
| 2026-04-30 18:32 | 41.93235 | 8.76012 | 4001 ft | 174 kts | 27° |
| 2026-04-30 18:33 | 41.94314 | 8.76661 | 3814 ft | 174 kts | 26° |
| 2026-04-30 18:33 | 41.96535 | 8.77956 | 3267 ft | 173 kts | 25° |
| 2026-04-30 18:33 | 41.97645 | 8.78604 | 2949 ft | 174 kts | 26° |
| 2026-04-30 18:34 | 41.98665 | 8.79447 | 2642 ft | 172 kts | 45° |
| 2026-04-30 18:34 | 41.99198 | 8.82315 | 2088 ft | 161 kts | 110° |
| 2026-04-30 18:34 | 41.98489 | 8.83344 | 1906 ft | 149 kts | 153° |
| 2026-04-30 18:35 | 41.97433 | 8.83380 | 1343 ft | 163 kts | 197° |
| 2026-04-30 18:35 | 41.96388 | 8.82743 | 938 ft | 156 kts | 208° |
| 2026-04-30 18:35 | 41.95449 | 8.82125 | 694 ft | 143 kts | 203° |
| 2026-04-30 18:36 | 41.93709 | 8.81078 | 255 ft | 137 kts | 206° |
| 2026-04-30 18:36 | 41.92850 | 8.80530 | 56 ft | 136 kts | 206° |
| 2026-04-30 18:36 | 41.91711 | 8.79822 | 16 ft | 76 kts | 205° |
| 2026-04-30 18:37 | 41.91370 | 8.79613 | 20 ft | 18 kts | 204° |
| 2026-04-30 18:37 | 41.91259 | 8.79519 | 22 ft | 19 kts | 227° |
| 2026-04-30 18:37 | 41.91301 | 8.79390 | 23 ft | 17 kts | 314° |
| 2026-04-30 18:37 | 41.91398 | 8.79348 | 28 ft | 15 kts | 347° |
| 2026-04-30 18:38 | 41.91502 | 8.79361 | 26 ft | 17 kts | 32° |
| 2026-04-30 18:38 | 41.91612 | 8.79431 | 26 ft | 19 kts | 25° |
| 2026-04-30 18:38 | 41.91727 | 8.79501 | 26 ft | 14 kts | 19° |
| 2026-04-30 18:38 | 41.91820 | 8.79558 | 26 ft | 15 kts | 24° |
| 2026-04-30 18:39 | 41.91902 | 8.79609 | 28 ft | 10 kts | 30° |
| 2026-04-30 18:39 | 41.91933 | 8.79594 | 26 ft | 4 kts | 310° |
| 2026-04-30 18:39 | 41.91955 | 8.79577 | 26 ft | 3 kts | 340° |
| 2026-04-30 18:39 | 41.91959 | 8.79576 | 26 ft | 0 kts | 347° |